Time;durP1;ratioP1;P1;durP2;ratioP2;P2;SDS_P1;SDS_P2;PMS_P1;PMS_P2;Temp;Humidity;BMP_temperature;BMP_pressure;BME280_temperature;BME280_humidity;BME280_pressure;Samples;Min_cycle;Max_cycle;Signal;HPM_P1;HPM_P2
2022/04/27 00:02:24;;;;;;;6.87;6.17;;;10.20;99.90;;;;;;5091313;28;20192;-35
2022/04/27 00:04:50;;;;;;;7.90;6.77;;;10.20;99.90;;;;;;5110139;28;20196;-35
2022/04/27 00:07:15;;;;;;;7.57;6.80;;;10.20;99.90;;;;;;5100945;28;20188;-35
2022/04/27 00:09:41;;;;;;;8.43;6.60;;;10.10;99.90;;;;;;5110542;28;20413;-35
2022/04/27 00:12:07;;;;;;;8.00;7.20;;;10.20;99.90;;;;;;5111331;28;20655;-35
2022/04/27 00:14:33;;;;;;;7.23;6.63;;;9.90;99.90;;;;;;5096666;28;20322;-35
2022/04/27 00:16:59;;;;;;;8.53;6.13;;;9.80;99.90;;;;;;5091965;28;20547;-35
2022/04/27 00:19:25;;;;;;;7.87;7.07;;;9.80;99.90;;;;;;5111871;28;20465;-35
2022/04/27 00:21:51;;;;;;;8.43;6.87;;;9.70;99.90;;;;;;5098538;28;20219;-35
2022/04/27 00:24:17;;;;;;;7.63;6.37;;;9.60;99.90;;;;;;5103608;28;20458;-35
2022/04/27 00:26:44;;;;;;;7.03;6.40;;;9.70;99.90;;;;;;5091301;28;20419;-35
2022/04/27 00:29:09;;;;;;;7.10;6.50;;;9.70;99.90;;;;;;5089840;28;20437;-35
2022/04/27 00:31:36;;;;;;;8.00;7.13;;;9.80;99.90;;;;;;5091157;28;20767;-35
2022/04/27 00:34:02;;;;;;;10.17;6.70;;;9.80;99.90;;;;;;5097706;28;20549;-35
2022/04/27 00:36:30;;;;;;;8.37;7.37;;;9.80;99.90;;;;;;5109437;28;20915;-35
2022/04/27 00:38:56;;;;;;;9.30;6.47;;;9.70;99.90;;;;;;5111685;28;20460;-35
2022/04/27 00:41:21;;;;;;;8.87;6.63;;;9.70;99.90;;;;;;5111404;28;20566;-35
2022/04/27 00:43:48;;;;;;;9.63;6.63;;;9.60;99.90;;;;;;5097065;28;20185;-35
2022/04/27 00:46:13;;;;;;;8.00;6.10;;;9.70;99.90;;;;;;5105528;28;20184;-35
2022/04/27 00:48:40;;;;;;;9.10;6.70;;;9.70;99.90;;;;;;5097482;28;20425;-36
2022/04/27 00:51:07;;;;;;;8.27;7.40;;;9.50;99.90;;;;;;5111282;28;20179;-35
2022/04/27 00:53:33;;;;;;;7.73;6.80;;;9.60;99.90;;;;;;5098920;28;20430;-35
2022/04/27 00:55:59;;;;;;;9.03;6.80;;;9.60;99.90;;;;;;5111988;28;20428;-35
2022/04/27 00:58:26;;;;;;;8.57;7.70;;;9.90;99.90;;;;;;5106107;28;20466;-35
2022/04/27 01:00:55;;;;;;;10.80;6.47;;;9.70;99.90;;;;;;5090565;28;20658;-35
2022/04/27 01:03:22;;;;;;;7.20;6.50;;;9.90;99.90;;;;;;5098255;28;20432;-35
2022/04/27 01:05:48;;;;;;;7.63;6.60;;;9.70;99.90;;;;;;5110627;28;20866;-35
2022/04/27 01:08:20;;;;;;;7.03;6.40;;;9.60;99.90;;;;;;5103266;28;20524;-35
2022/04/27 01:10:47;;;;;;;7.87;7.10;;;9.50;99.90;;;;;;5110824;28;20783;-35
2022/04/27 01:13:14;;;;;;;8.13;6.90;;;9.60;99.90;;;;;;5107961;28;20433;-35
2022/04/27 01:15:39;;;;;;;10.03;7.07;;;9.40;99.90;;;;;;5092673;28;20418;-35
2022/04/27 01:18:07;;;;;;;7.67;6.80;;;9.50;99.90;;;;;;5093918;28;20987;-35
2022/04/27 01:20:44;;;;;;;7.30;6.60;;;9.30;99.90;;;;;;5103595;28;20186;-35
2022/04/27 01:23:14;;;;;;;10.47;7.07;;;9.40;99.90;;;;;;5101175;28;20528;-35
2022/04/27 01:25:55;;;;;;;8.70;6.53;;;9.40;99.90;;;;;;5091381;28;20937;-35
2022/04/27 01:28:24;;;;;;;9.43;7.27;;;9.40;99.90;;;;;;5088765;28;20434;-35
2022/04/27 01:31:16;;;;;;;10.47;6.60;;;9.50;99.90;;;;;;5089723;28;21042;-35
2022/04/27 01:33:42;;;;;;;10.27;9.17;;;9.40;99.90;;;;;;5087203;28;20516;-35
2022/04/27 01:36:09;;;;;;;8.20;6.73;;;9.20;99.90;;;;;;5110896;28;20504;-35
2022/04/27 01:38:43;;;;;;;7.20;6.50;;;9.20;99.90;;;;;;5095494;28;20456;-35
2022/04/27 01:41:09;;;;;;;8.03;6.30;;;9.20;99.90;;;;;;5110166;28;20522;-35
2022/04/27 01:43:35;;;;;;;10.10;7.27;;;9.30;99.90;;;;;;5105587;28;20449;-35
2022/04/27 01:46:02;;;;;;;9.90;7.00;;;9.30;99.90;;;;;;5090075;28;20430;-35
2022/04/27 01:48:28;;;;;;;8.27;6.83;;;9.40;99.90;;;;;;5095495;28;20456;-35
2022/04/27 01:50:54;;;;;;;10.20;7.90;;;9.40;99.90;;;;;;5108715;28;20787;-35
2022/04/27 01:56:04;;;;;;;8.43;7.30;;;9.10;99.90;;;;;;5110302;28;20445;-35
2022/04/27 01:58:30;;;;;;;10.50;7.50;;;9.30;99.90;;;;;;5107950;28;20476;-35
2022/04/27 02:00:57;;;;;;;8.50;6.93;;;9.10;99.90;;;;;;5089924;28;21324;-35
2022/04/27 02:03:23;;;;;;;8.93;7.10;;;9.40;99.90;;;;;;5090774;28;20418;-35
2022/04/27 02:05:52;;;;;;;12.03;7.17;;;9.10;99.90;;;;;;5102732;28;20437;-35
2022/04/27 02:08:18;;;;;;;9.30;7.43;;;9.10;99.90;;;;;;5105992;28;20433;-35
2022/04/27 02:10:44;;;;;;;7.67;6.87;;;9.00;99.90;;;;;;5109710;28;20430;-35
2022/04/27 02:13:11;;;;;;;8.50;6.80;;;9.20;99.90;;;;;;5107091;28;21069;-35
2022/04/27 02:15:37;;;;;;;10.93;7.23;;;9.10;99.90;;;;;;5089173;28;20447;-35
2022/04/27 02:18:04;;;;;;;8.57;7.30;;;8.90;99.90;;;;;;5089668;28;20816;-35
2022/04/27 02:20:30;;;;;;;9.10;7.67;;;8.80;99.90;;;;;;5102582;28;20505;-35
2022/04/27 02:22:56;;;;;;;11.80;7.90;;;8.60;99.90;;;;;;5098120;28;20421;-35
2022/04/27 02:25:22;;;;;;;8.10;7.30;;;8.60;99.90;;;;;;5092911;28;20799;-35
2022/04/27 02:27:49;;;;;;;10.70;7.73;;;8.60;99.90;;;;;;5089560;28;20191;-35
2022/04/27 02:30:16;;;;;;;8.53;7.00;;;8.60;99.90;;;;;;5088212;28;20532;-35
2022/04/27 02:32:42;;;;;;;11.33;8.63;;;8.60;99.90;;;;;;5089368;28;20458;-35
2022/04/27 02:35:08;;;;;;;9.50;6.80;;;8.60;99.90;;;;;;5105247;28;20433;-35
2022/04/27 02:37:35;;;;;;;14.13;8.90;;;8.50;99.90;;;;;;5104476;28;20431;-35
2022/04/27 02:40:02;;;;;;;7.20;6.50;;;8.80;99.90;;;;;;5104901;28;20426;-35
2022/04/27 02:42:29;;;;;;;9.90;6.80;;;8.60;99.90;;;;;;5109681;28;20923;-35
2022/04/27 02:44:56;;;;;;;8.70;7.80;;;8.80;99.90;;;;;;5095729;28;20524;-35
2022/04/27 02:47:22;;;;;;;9.20;7.33;;;8.80;99.90;;;;;;5088933;28;20433;-35
2022/04/27 02:52:32;;;;;;;9.90;7.47;;;8.60;99.90;;;;;;5105336;28;20438;-35
2022/04/27 02:54:57;;;;;;;11.73;8.03;;;8.70;99.90;;;;;;5108109;28;20432;-35
2022/04/27 02:57:23;;;;;;;10.00;7.97;;;8.60;99.90;;;;;;5109377;28;20259;-35
2022/04/27 02:59:49;;;;;;;8.40;7.33;;;8.70;99.90;;;;;;5096486;28;20210;-35
2022/04/27 03:02:15;;;;;;;10.10;8.03;;;8.60;99.90;;;;;;5090891;28;20517;-35
2022/04/27 03:04:41;;;;;;;10.20;7.60;;;8.50;99.90;;;;;;5093246;28;20256;-35
2022/04/27 03:07:07;;;;;;;9.30;8.00;;;8.40;99.90;;;;;;5109390;28;20421;-35
2022/04/27 03:09:33;;;;;;;8.70;7.87;;;8.30;99.90;;;;;;5107913;28;20642;-35
2022/04/27 03:11:59;;;;;;;9.23;8.30;;;8.20;99.90;;;;;;5109343;28;20414;-35
2022/04/27 03:14:25;;;;;;;10.40;8.57;;;8.10;99.90;;;;;;5095658;28;21438;-35
2022/04/27 03:16:52;;;;;;;9.37;8.10;;;8.20;99.90;;;;;;5088953;28;20430;-35
2022/04/27 03:19:19;;;;;;;11.20;7.40;;;8.00;99.90;;;;;;5094406;28;20243;-35
2022/04/27 03:21:45;;;;;;;10.03;8.63;;;8.30;99.90;;;;;;5096833;28;20527;-35
2022/04/27 03:24:11;;;;;;;9.87;8.70;;;8.20;99.90;;;;;;5088810;28;20463;-35
2022/04/27 03:26:36;;;;;;;9.00;8.10;;;8.10;99.90;;;;;;5089078;28;20434;-35
2022/04/27 03:29:03;;;;;;;10.20;8.57;;;8.00;99.90;;;;;;5088174;28;20433;-35
2022/04/27 03:31:29;;;;;;;10.70;8.20;;;8.20;99.90;;;;;;5086784;28;20597;-35
2022/04/27 03:33:55;;;;;;;9.53;8.10;;;8.00;99.90;;;;;;5094332;28;20442;-35
2022/04/27 03:36:21;;;;;;;11.73;9.10;;;7.90;99.90;;;;;;5109479;28;20511;-35
2022/04/27 03:38:50;;;;;;;11.67;8.50;;;7.90;99.90;;;;;;5101688;28;20514;-35
2022/04/27 03:41:26;;;;;;;9.53;7.90;;;7.90;99.90;;;;;;5108484;28;20192;-35
2022/04/27 03:43:52;;;;;;;9.27;8.27;;;7.90;99.90;;;;;;5107586;28;20459;-35
2022/04/27 03:46:19;;;;;;;12.20;9.40;;;8.00;99.90;;;;;;5086616;28;20406;-35
2022/04/27 03:48:46;;;;;;;10.30;9.03;;;8.10;99.90;;;;;;5088910;28;20199;-35
2022/04/27 03:51:12;;;;;;;10.23;8.83;;;8.00;99.90;;;;;;5101116;28;20421;-35
2022/04/27 03:53:38;;;;;;;9.53;8.50;;;7.90;99.90;;;;;;5105975;28;20565;-35
2022/04/27 03:56:05;;;;;;;10.63;8.27;;;8.30;99.90;;;;;;5109067;28;21028;-35
2022/04/27 03:58:31;;;;;;;10.03;8.50;;;8.20;99.90;;;;;;5107694;28;20219;-35
2022/04/27 04:00:56;;;;;;;13.07;10.07;;;8.00;99.90;;;;;;5091690;28;20897;-35
2022/04/27 04:03:22;;;;;;;14.07;10.60;;;8.00;99.90;;;;;;5092429;28;20435;-36
2022/04/27 04:05:48;;;;;;;14.23;10.47;;;8.10;99.90;;;;;;5105363;28;20184;-35
2022/04/27 04:08:14;;;;;;;10.83;9.70;;;8.20;99.90;;;;;;5106464;28;20246;-35
2022/04/27 04:10:39;;;;;;;15.03;10.07;;;8.10;99.90;;;;;;5105787;28;20195;-35
2022/04/27 04:13:05;;;;;;;12.87;9.57;;;8.30;99.90;;;;;;5111382;28;20931;-36
2022/04/27 04:15:32;;;;;;;11.33;9.90;;;8.20;99.90;;;;;;5092715;28;20846;-35
2022/04/27 04:17:58;;;;;;;10.90;9.90;;;8.20;99.90;;;;;;5090662;28;20238;-35
2022/04/27 04:20:24;;;;;;;11.63;9.93;;;8.20;99.90;;;;;;5104917;28;20418;-35
2022/04/27 04:22:49;;;;;;;16.77;11.07;;;8.20;99.90;;;;;;5092098;28;20414;-35
2022/04/27 04:30:45;;;;;;;15.13;10.73;;;8.10;99.90;;;;;;5090646;28;20450;-35
2022/04/27 04:33:11;;;;;;;9.90;8.90;;;8.00;99.90;;;;;;5095239;28;20877;-35
2022/04/27 04:35:37;;;;;;;13.47;10.33;;;8.10;99.90;;;;;;5096659;28;20516;-35
2022/04/27 04:38:06;;;;;;;12.47;10.00;;;8.10;99.90;;;;;;5109259;28;20462;-35
2022/04/27 04:40:33;;;;;;;12.63;9.80;;;8.00;99.90;;;;;;5111691;28;20799;-35
2022/04/27 04:42:59;;;;;;;11.97;10.43;;;8.10;99.90;;;;;;5111919;28;20417;-35
2022/04/27 04:45:25;;;;;;;17.57;11.80;;;8.00;99.90;;;;;;5088133;28;20428;-35
2022/04/27 04:47:51;;;;;;;12.97;10.90;;;8.00;99.90;;;;;;5091221;28;20433;-35
2022/04/27 04:50:17;;;;;;;12.83;10.33;;;8.10;99.90;;;;;;5090744;28;20430;-35
2022/04/27 04:52:44;;;;;;;12.23;10.17;;;8.20;99.90;;;;;;5091338;28;20196;-35
2022/04/27 04:55:09;;;;;;;13.63;9.90;;;8.30;99.90;;;;;;5098583;28;20483;-35
2022/04/27 04:57:35;;;;;;;12.20;10.90;;;8.30;99.90;;;;;;5111440;28;20453;-35
2022/04/27 05:00:02;;;;;;;11.73;10.40;;;8.50;99.90;;;;;;5104777;28;20271;-35
2022/04/27 05:02:31;;;;;;;12.00;10.27;;;8.30;99.90;;;;;;5088385;28;20741;-35
2022/04/27 05:04:58;;;;;;;14.53;10.50;;;8.30;99.90;;;;;;5095558;28;20489;-35
2022/04/27 05:07:24;;;;;;;14.00;11.47;;;8.50;99.90;;;;;;5111609;28;20417;-35
2022/04/27 05:09:49;;;;;;;14.33;11.67;;;8.30;99.90;;;;;;5101801;28;20430;-35
2022/04/27 05:12:15;;;;;;;13.80;11.73;;;8.40;99.90;;;;;;5111348;28;20183;-35
2022/04/27 05:14:41;;;;;;;13.17;11.83;;;8.20;99.90;;;;;;5101066;28;20241;-35
2022/04/27 05:17:06;;;;;;;14.57;12.07;;;8.30;99.90;;;;;;5090097;28;20627;-35
2022/04/27 05:19:32;;;;;;;12.93;11.10;;;8.10;99.90;;;;;;5089149;28;20215;-35
2022/04/27 05:21:58;;;;;;;12.80;11.43;;;8.20;99.90;;;;;;5091308;28;20199;-35
2022/04/27 05:24:23;;;;;;;20.63;12.30;;;8.40;99.90;;;;;;5090761;28;20188;-35
2022/04/27 05:26:49;;;;;;;17.30;12.27;;;8.20;99.90;;;;;;5090764;28;20755;-35
2022/04/27 05:31:59;;;;;;;20.30;11.40;;;8.20;99.90;;;;;;5090056;28;20195;-35
2022/04/27 05:34:29;;;;;;;13.83;12.07;;;8.40;99.90;;;;;;5090492;28;20415;-35
2022/04/27 05:36:56;;;;;;;17.63;12.67;;;8.50;99.90;;;;;;5103925;28;20196;-35
2022/04/27 05:39:22;;;;;;;14.33;12.10;;;8.80;99.90;;;;;;5100615;28;20797;-35
2022/04/27 05:41:51;;;;;;;13.27;11.67;;;8.60;99.90;;;;;;5110260;28;20436;-35
2022/04/27 05:44:19;;;;;;;13.40;11.50;;;8.60;99.90;;;;;;5110957;28;20810;-35
2022/04/27 05:46:45;;;;;;;18.77;14.07;;;8.50;99.90;;;;;;5092043;28;20901;-35
2022/04/27 05:49:14;;;;;;;13.37;11.93;;;8.50;99.90;;;;;;5089142;28;20517;-35
2022/04/27 05:51:41;;;;;;;14.90;12.50;;;8.60;99.90;;;;;;5108072;28;20191;-35
2022/04/27 05:54:06;;;;;;;14.73;12.53;;;8.60;99.90;;;;;;5102990;28;20445;-35
2022/04/27 05:56:32;;;;;;;16.03;12.07;;;8.60;99.90;;;;;;5108521;28;20426;-35
2022/04/27 05:58:59;;;;;;;16.87;13.90;;;8.80;99.90;;;;;;5110597;28;20202;-35
2022/04/27 06:01:25;;;;;;;14.50;11.87;;;9.00;99.90;;;;;;5093105;28;20443;-35
2022/04/27 06:03:50;;;;;;;15.67;12.47;;;8.90;99.90;;;;;;5090067;28;20463;-35
2022/04/27 06:06:16;;;;;;;17.57;11.53;;;9.00;99.90;;;;;;5107148;28;20424;-35
2022/04/27 06:08:42;;;;;;;18.00;12.80;;;9.20;99.90;;;;;;5106603;28;20426;-35
2022/04/27 06:11:08;;;;;;;15.43;12.23;;;9.60;99.90;;;;;;5107819;28;20198;-35
2022/04/27 06:13:33;;;;;;;15.43;11.20;;;9.80;99.90;;;;;;5103639;28;20184;-35
2022/04/27 06:15:59;;;;;;;13.47;10.73;;;9.80;99.90;;;;;;5097843;28;20481;-35
2022/04/27 06:18:25;;;;;;;12.43;9.97;;;10.10;99.90;;;;;;5090618;28;20216;-35
2022/04/27 06:20:52;;;;;;;11.90;10.30;;;10.40;99.90;;;;;;5082718;28;20196;-35
2022/04/27 06:23:18;;;;;;;13.07;11.00;;;10.50;99.90;;;;;;5088018;28;20458;-35
2022/04/27 06:25:47;;;;;;;14.57;10.17;;;10.80;99.90;;;;;;5087608;28;20446;-35
2022/04/27 06:28:13;;;;;;;11.03;9.87;;;10.90;99.90;;;;;;5089188;28;20430;-35
2022/04/27 06:30:39;;;;;;;12.50;10.13;;;11.10;99.90;;;;;;5087932;28;20444;-35
2022/04/27 06:33:05;;;;;;;12.67;9.13;;;11.30;99.90;;;;;;5089161;28;20434;-35
2022/04/27 06:35:31;;;;;;;11.60;10.40;;;11.50;99.90;;;;;;5094666;28;20532;-35
2022/04/27 06:37:57;;;;;;;12.40;9.70;;;11.60;99.90;;;;;;5109888;27;20457;-35
2022/04/27 06:40:24;;;;;;;12.07;10.00;;;11.70;99.90;;;;;;5097609;28;20429;-35
2022/04/27 06:42:51;;;;;;;12.30;10.83;;;11.90;99.90;;;;;;5109475;28;20199;-35
2022/04/27 06:45:17;;;;;;;12.13;10.07;;;11.90;99.90;;;;;;5106933;28;20421;-35
2022/04/27 06:47:43;;;;;;;10.83;9.73;;;12.00;99.90;;;;;;5089177;28;20870;-35
2022/04/27 06:50:12;;;;;;;13.23;9.97;;;12.00;99.90;;;;;;5093165;28;20541;-35
2022/04/27 06:52:42;;;;;;;14.33;9.50;;;12.20;99.90;;;;;;5098805;28;20516;-35
2022/04/27 06:55:11;;;;;;;12.20;9.60;;;12.30;99.90;;;;;;5097572;28;20466;-35
2022/04/27 06:57:37;;;;;;;13.23;9.63;;;12.50;99.90;;;;;;5097587;28;20967;-35
2022/04/27 07:00:04;;;;;;;9.97;8.73;;;12.40;99.90;;;;;;5097588;28;20422;-35
2022/04/27 07:02:30;;;;;;;14.90;11.47;;;12.40;99.90;;;;;;5095516;28;20266;-35
2022/04/27 07:05:00;;;;;;;12.90;10.83;;;12.40;99.90;;;;;;5093484;28;20407;-36
2022/04/27 07:07:29;;;;;;;17.83;11.97;;;12.40;99.90;;;;;;5095707;28;20551;-35
2022/04/27 07:09:56;;;;;;;12.30;9.40;;;12.40;99.90;;;;;;5100667;28;20784;-36
2022/04/27 07:12:22;;;;;;;12.83;10.60;;;12.40;99.90;;;;;;5098537;28;20909;-35
2022/04/27 07:14:48;;;;;;;13.80;9.63;;;12.50;99.90;;;;;;5101136;28;20935;-35
2022/04/27 07:17:14;;;;;;;15.60;10.00;;;12.70;99.90;;;;;;5088587;28;20441;-35
2022/04/27 07:19:40;;;;;;;12.53;10.10;;;12.70;99.90;;;;;;5089071;28;20204;-35
2022/04/27 07:22:06;;;;;;;13.30;9.60;;;12.70;99.90;;;;;;5089085;28;20422;-36
2022/04/27 07:24:32;;;;;;;12.90;10.20;;;12.70;99.90;;;;;;5088698;28;20510;-35
2022/04/27 07:26:58;;;;;;;12.00;10.77;;;12.70;99.90;;;;;;5102596;28;20518;-35
2022/04/27 07:29:24;;;;;;;12.20;9.80;;;12.60;99.90;;;;;;5098377;28;20438;-35
2022/04/27 07:31:50;;;;;;;13.40;10.83;;;12.30;99.90;;;;;;5112961;28;20187;-35
2022/04/27 07:34:16;;;;;;;10.70;9.60;;;12.30;99.90;;;;;;5094710;28;20425;-35
2022/04/27 07:36:42;;;;;;;11.50;10.30;;;12.20;99.90;;;;;;5092979;28;20940;-35
2022/04/27 07:39:08;;;;;;;14.50;10.20;;;12.30;99.90;;;;;;5092551;28;20457;-36
2022/04/27 07:41:34;;;;;;;11.07;9.90;;;12.60;99.90;;;;;;5107594;28;20654;-35
2022/04/27 07:44:00;;;;;;;10.30;8.90;;;12.50;99.90;;;;;;5113281;28;20184;-35
2022/04/27 07:46:26;;;;;;;11.60;9.70;;;12.60;99.90;;;;;;5103641;28;20790;-36
2022/04/27 07:48:51;;;;;;;12.17;9.83;;;12.60;99.90;;;;;;5094365;28;20863;-35
2022/04/27 07:51:17;;;;;;;11.47;8.87;;;12.50;99.90;;;;;;5092166;28;20894;-35
2022/04/27 07:53:43;;;;;;;10.83;9.70;;;12.60;99.90;;;;;;5112975;28;20219;-35
2022/04/27 07:56:09;;;;;;;15.80;10.47;;;12.60;99.90;;;;;;5109598;28;20444;-35
2022/04/27 07:58:35;;;;;;;11.70;9.87;;;12.60;99.90;;;;;;5112856;28;20577;-35
2022/04/27 08:01:01;;;;;;;9.90;8.80;;;12.50;99.90;;;;;;5106891;28;20525;-35
2022/04/27 08:03:27;;;;;;;14.70;9.47;;;12.50;99.90;;;;;;5095051;28;20305;-35
2022/04/27 08:05:53;;;;;;;10.63;9.53;;;12.40;99.90;;;;;;5091254;28;20438;-36
2022/04/27 08:08:18;;;;;;;12.00;9.57;;;12.40;99.90;;;;;;5112656;28;20184;-35
2022/04/27 08:10:44;;;;;;;14.33;9.60;;;12.40;99.90;;;;;;5098832;28;20184;-35
2022/04/27 08:13:10;;;;;;;13.13;8.70;;;12.40;99.90;;;;;;5110323;28;20188;-35
2022/04/27 08:15:35;;;;;;;15.83;10.23;;;12.40;99.90;;;;;;5106845;28;20188;-35
2022/04/27 08:18:09;;;;;;;11.60;9.60;;;12.40;99.90;;;;;;5091015;28;20214;-35
2022/04/27 08:23:22;;;;;;;12.17;9.13;;;12.50;99.90;;;;;;5092030;28;20467;-35
2022/04/27 08:25:49;;;;;;;11.60;8.93;;;12.50;99.90;;;;;;5095884;28;20425;-35
2022/04/27 08:28:16;;;;;;;14.03;9.13;;;12.50;99.90;;;;;;5112297;28;20845;-35
2022/04/27 08:30:46;;;;;;;11.67;10.00;;;12.60;99.90;;;;;;5111707;28;20426;-35
2022/04/27 08:33:13;;;;;;;11.13;8.80;;;12.60;99.90;;;;;;5090700;28;20442;-35
2022/04/27 08:35:40;;;;;;;11.90;8.37;;;12.70;99.90;;;;;;5091915;28;20425;-35
2022/04/27 08:38:07;;;;;;;9.83;7.87;;;12.60;99.90;;;;;;5104445;28;20530;-35
2022/04/27 08:40:38;;;;;;;8.23;7.43;;;12.70;99.90;;;;;;5106597;28;20418;-35
2022/04/27 08:43:04;;;;;;;9.50;7.70;;;12.50;99.90;;;;;;5111937;28;20750;-35
2022/04/27 08:45:30;;;;;;;10.30;8.07;;;12.80;99.90;;;;;;5112095;28;20456;-35
2022/04/27 08:47:57;;;;;;;8.40;7.60;;;12.80;99.90;;;;;;5092118;28;20430;-35
2022/04/27 08:50:24;;;;;;;9.50;8.43;;;12.80;99.90;;;;;;5091979;28;20422;-36
2022/04/27 08:52:51;;;;;;;10.23;9.03;;;12.80;99.90;;;;;;5105073;28;20425;-35
2022/04/27 08:55:18;;;;;;;9.37;8.30;;;12.80;99.90;;;;;;5110569;28;20935;-35
2022/04/27 08:57:44;;;;;;;14.90;9.10;;;12.90;99.90;;;;;;5111446;28;20445;-35
2022/04/27 09:00:13;;;;;;;11.23;9.70;;;13.00;99.90;;;;;;5111138;28;20425;-35
2022/04/27 09:02:38;;;;;;;9.80;8.50;;;13.10;99.90;;;;;;5095309;28;20852;-35
2022/04/27 09:05:15;;;;;;;13.50;8.57;;;13.20;99.90;;;;;;5089718;28;20442;-35
2022/04/27 09:07:44;;;;;;;9.33;8.07;;;13.30;99.90;;;;;;5107595;28;20421;-35
2022/04/27 09:10:12;;;;;;;7.50;6.80;;;13.30;99.90;;;;;;5103284;28;20422;-35
2022/04/27 09:12:47;;;;;;;8.40;7.60;;;13.20;99.60;;;;;;5107868;28;20464;-35
2022/04/27 09:15:14;;;;;;;9.70;7.63;;;13.40;99.40;;;;;;5103230;28;20425;-35
2022/04/27 09:23:21;;;;;;;10.47;8.53;;;13.60;98.90;;;;;;5091004;28;20422;-35
2022/04/27 09:25:47;;;;;;;9.70;8.43;;;13.80;99.30;;;;;;5094488;28;20772;-35
2022/04/27 09:28:13;;;;;;;10.47;8.23;;;13.90;99.90;;;;;;5111472;28;20422;-35
2022/04/27 09:30:39;;;;;;;13.37;9.13;;;14.00;99.30;;;;;;5110493;28;21150;-35
2022/04/27 09:33:04;;;;;;;9.97;8.70;;;14.10;98.70;;;;;;5093349;28;20187;-36
2022/04/27 09:35:35;;;;;;;11.93;8.30;;;14.20;98.60;;;;;;5096923;28;20211;-35
2022/04/27 09:38:15;;;;;;;10.60;8.10;;;14.40;98.30;;;;;;5102920;28;20295;-35
2022/04/27 09:40:54;;;;;;;10.70;8.23;;;14.50;97.60;;;;;;5108957;28;20811;-36
2022/04/27 09:43:42;;;;;;;9.73;8.30;;;14.70;97.50;;;;;;5110853;28;20418;-36
2022/04/27 09:46:25;;;;;;;10.70;9.60;;;14.80;97.60;;;;;;5110514;28;20464;-35
2022/04/27 09:49:07;;;;;;;11.03;9.10;;;14.80;96.20;;;;;;5089600;28;20458;-35
2022/04/27 09:51:50;;;;;;;10.67;9.50;;;14.80;96.30;;;;;;5089734;28;20469;-35
2022/04/27 09:54:22;;;;;;;11.23;10.07;;;14.90;96.60;;;;;;5082710;28;20502;-35
2022/04/27 09:56:55;;;;;;;10.30;9.20;;;15.10;96.50;;;;;;5096151;28;20513;-35
2022/04/27 09:59:27;;;;;;;12.00;9.30;;;15.20;97.30;;;;;;5109797;28;20945;-36
2022/04/27 10:02:10;;;;;;;12.30;9.37;;;15.30;97.00;;;;;;5104629;28;20526;-35
2022/04/27 10:04:37;;;;;;;11.63;9.20;;;15.40;95.90;;;;;;5086750;28;20414;-35
2022/04/27 10:07:06;;;;;;;10.73;9.63;;;15.40;96.20;;;;;;5100498;28;20912;-35
2022/04/27 10:09:32;;;;;;;10.77;9.73;;;15.30;96.10;;;;;;5110568;28;20457;-35
2022/04/27 10:12:01;;;;;;;11.97;10.77;;;15.40;95.30;;;;;;5103227;28;20437;-35
2022/04/27 10:14:27;;;;;;;12.77;10.10;;;15.50;96.00;;;;;;5102255;28;20978;-35
2022/04/27 10:16:54;;;;;;;11.27;10.07;;;15.60;95.50;;;;;;5104204;28;20441;-35
2022/04/27 10:19:21;;;;;;;11.83;10.73;;;15.60;94.80;;;;;;5092402;28;20548;-35
2022/04/27 10:21:57;;;;;;;10.90;9.80;;;15.70;95.80;;;;;;5087636;28;20472;-35
2022/04/27 10:24:37;;;;;;;10.83;9.83;;;15.80;94.70;;;;;;5078741;28;20528;-35
2022/04/27 10:27:19;;;;;;;9.63;8.73;;;15.90;92.90;;;;;;5105102;28;20421;-35
2022/04/27 10:30:03;;;;;;;13.23;10.10;;;15.90;95.20;;;;;;5109550;28;20428;-35
2022/04/27 10:32:49;;;;;;;9.93;9.03;;;15.80;93.70;;;;;;5100775;28;20456;-35
2022/04/27 10:35:33;;;;;;;10.33;9.33;;;15.70;95.20;;;;;;5086048;28;20440;-35
2022/04/27 10:38:05;;;;;;;10.27;9.27;;;15.80;95.70;;;;;;5101467;28;20525;-35
2022/04/27 10:40:38;;;;;;;11.50;9.83;;;16.00;94.20;;;;;;5104965;28;20422;-35
2022/04/27 10:43:15;;;;;;;9.90;9.00;;;16.00;93.90;;;;;;5103146;28;20487;-35
2022/04/27 10:45:45;;;;;;;9.37;8.57;;;16.00;95.20;;;;;;5109921;28;20790;-36
2022/04/27 10:48:21;;;;;;;10.47;9.47;;;16.20;95.30;;;;;;5100217;28;20434;-36
2022/04/27 10:51:03;;;;;;;9.30;8.40;;;16.20;93.90;;;;;;5097790;28;20796;-35
2022/04/27 10:53:38;;;;;;;11.03;9.57;;;16.30;95.00;;;;;;5093998;28;20901;-35
2022/04/27 10:56:23;;;;;;;9.80;8.80;;;16.50;94.50;;;;;;5102718;28;20422;-36
2022/04/27 10:58:49;;;;;;;9.90;8.90;;;16.60;92.70;;;;;;5108166;28;20453;-36
2022/04/27 11:01:20;;;;;;;9.60;8.60;;;16.60;94.00;;;;;;5091826;28;20438;-36
2022/04/27 11:03:58;;;;;;;9.77;8.57;;;16.70;93.70;;;;;;5088664;28;20241;-35
2022/04/27 11:06:24;;;;;;;10.53;9.63;;;16.70;92.00;;;;;;5087209;28;20773;-35
2022/04/27 11:09:23;;;;;;;8.93;8.07;;;16.70;93.40;;;;;;5097099;28;20423;-36
2022/04/27 11:11:52;;;;;;;9.70;8.70;;;16.80;93.30;;;;;;5094278;28;20198;-36
2022/04/27 11:14:21;;;;;;;10.43;9.00;;;17.00;93.30;;;;;;5089479;28;20446;-36
2022/04/27 11:16:47;;;;;;;10.93;9.80;;;17.00;92.50;;;;;;5107625;28;20413;-35
2022/04/27 11:19:13;;;;;;;11.47;8.80;;;17.00;91.80;;;;;;5088521;28;20498;-36
2022/04/27 11:21:40;;;;;;;11.43;8.73;;;17.00;91.90;;;;;;5088471;28;20457;-35
2022/04/27 11:24:07;;;;;;;11.47;10.10;;;17.00;92.90;;;;;;5100323;28;20426;-36
2022/04/27 11:26:47;;;;;;;12.70;9.77;;;16.90;92.20;;;;;;5089097;28;20903;-36
2022/04/27 11:29:14;;;;;;;10.57;9.47;;;17.00;93.30;;;;;;5109185;28;20432;-36
2022/04/27 11:31:42;;;;;;;10.67;9.57;;;17.00;92.90;;;;;;5087015;28;20480;-36
2022/04/27 11:34:24;;;;;;;10.87;9.77;;;17.00;91.10;;;;;;5095041;28;20909;-36
2022/04/27 11:36:54;;;;;;;9.70;8.70;;;16.80;90.20;;;;;;5093941;28;20471;-36
2022/04/27 11:39:24;;;;;;;11.00;9.27;;;16.80;93.40;;;;;;5096476;28;20473;-35
2022/04/27 11:42:02;;;;;;;11.30;10.10;;;16.90;94.00;;;;;;5092939;28;20508;-35
2022/04/27 11:44:29;;;;;;;11.23;10.17;;;17.10;93.50;;;;;;5103800;28;20418;-35
2022/04/27 11:46:56;;;;;;;13.20;9.00;;;17.30;92.70;;;;;;5094238;28;20439;-36
2022/04/27 11:49:23;;;;;;;11.50;9.57;;;17.50;92.80;;;;;;5087246;28;20501;-36
2022/04/27 11:51:48;;;;;;;12.00;10.73;;;17.50;91.90;;;;;;5098711;28;20452;-36
2022/04/27 11:54:25;;;;;;;11.33;10.20;;;17.50;91.50;;;;;;5098457;28;20783;-36
2022/04/27 11:57:03;;;;;;;14.07;9.60;;;17.40;90.80;;;;;;5102152;28;20190;-36
2022/04/27 11:59:42;;;;;;;10.80;9.70;;;17.30;91.20;;;;;;5098324;28;20807;-36
2022/04/27 12:02:09;;;;;;;11.37;10.27;;;17.40;92.60;;;;;;5094301;28;20413;-36
2022/04/27 12:04:41;;;;;;;10.10;9.10;;;17.40;92.70;;;;;;5087083;28;20411;-36
2022/04/27 12:07:16;;;;;;;11.07;9.97;;;17.60;94.50;;;;;;5098770;28;20415;-36
2022/04/27 12:09:59;;;;;;;11.00;10.00;;;17.40;91.50;;;;;;5104737;28;20428;-36
2022/04/27 12:12:29;;;;;;;10.93;9.93;;;17.30;91.40;;;;;;5097696;28;20430;-36
2022/04/27 12:14:56;;;;;;;10.20;9.37;;;17.10;92.30;;;;;;5090528;28;20954;-36
2022/04/27 12:17:44;;;;;;;11.57;9.40;;;17.00;91.00;;;;;;5087815;28;20423;-36
2022/04/27 12:20:22;;;;;;;10.87;9.73;;;17.10;92.30;;;;;;5090451;28;20441;-36
2022/04/27 12:22:59;;;;;;;11.03;9.93;;;17.30;92.50;;;;;;5093366;28;20497;-36
2022/04/27 12:25:36;;;;;;;10.60;9.53;;;17.20;92.60;;;;;;5095427;28;20988;-36
2022/04/27 12:28:07;;;;;;;9.93;9.13;;;17.20;92.00;;;;;;5092294;28;21145;-36
2022/04/27 12:30:51;;;;;;;11.20;10.10;;;17.10;91.60;;;;;;5102931;28;20531;-36
2022/04/27 12:33:22;;;;;;;10.90;9.90;;;16.90;90.80;;;;;;5099623;28;20426;-36
2022/04/27 12:38:37;;;;;;;10.63;9.60;;;16.90;92.20;;;;;;5103569;28;20453;-36
2022/04/27 12:41:03;;;;;;;12.20;11.00;;;17.10;92.60;;;;;;5100976;28;20425;-36
2022/04/27 12:43:29;;;;;;;12.67;11.43;;;17.10;90.70;;;;;;5104567;28;21054;-36
2022/04/27 12:46:09;;;;;;;14.23;11.80;;;17.40;93.10;;;;;;5109030;28;20431;-36
2022/04/27 12:48:36;;;;;;;12.10;11.10;;;17.40;91.70;;;;;;5100477;28;20180;-36
2022/04/27 12:51:03;;;;;;;13.60;10.90;;;17.50;91.30;;;;;;5097425;28;20425;-36
2022/04/27 12:53:30;;;;;;;11.13;10.03;;;17.40;90.10;;;;;;5093555;28;20428;-34
2022/04/27 12:56:08;;;;;;;10.50;9.60;;;17.50;90.00;;;;;;5111010;28;20504;-36
2022/04/27 12:58:35;;;;;;;11.37;10.27;;;17.60;92.00;;;;;;5111726;28;20540;-36
2022/04/27 13:01:01;;;;;;;11.73;10.53;;;17.70;91.30;;;;;;5111163;28;20429;-36
2022/04/27 13:03:27;;;;;;;12.10;10.83;;;17.70;92.40;;;;;;5101813;28;20430;-36
2022/04/27 13:05:53;;;;;;;11.90;10.80;;;17.60;91.70;;;;;;5083947;28;20189;-36
2022/04/27 13:08:19;;;;;;;11.60;10.43;;;17.70;91.50;;;;;;5098022;28;20195;-36
2022/04/27 13:13:30;;;;;;;11.30;10.30;;;17.60;91.20;;;;;;5097459;28;20501;-34
2022/04/27 13:15:56;;;;;;;10.93;9.73;;;17.70;89.10;;;;;;5108728;28;20483;-35